sensor_id;sensor_type;location;lat;lon;timestamp;pressure;altitude;pressure_sealevel;temperature;humidity
56518;BME280;42419;48.760;2.322;2023-05-01T00:00:58;100972.03;;;23.30;35.48
56518;BME280;42419;48.760;2.322;2023-05-01T00:03:25;100985.59;;;23.46;35.43
56518;BME280;42419;48.760;2.322;2023-05-01T00:05:50;100990.97;;;23.46;35.24
56518;BME280;42419;48.760;2.322;2023-05-01T00:08:16;100990.84;;;23.47;35.27
56518;BME280;42419;48.760;2.322;2023-05-01T00:10:41;100978.69;;;23.40;35.93
56518;BME280;42419;48.760;2.322;2023-05-01T00:13:07;100977.75;;;23.41;35.46
56518;BME280;42419;48.760;2.322;2023-05-01T00:15:34;100978.53;;;23.43;35.36
56518;BME280;42419;48.760;2.322;2023-05-01T00:17:59;100980.91;;;23.49;35.77
56518;BME280;42419;48.760;2.322;2023-05-01T00:20:28;100982.56;;;23.52;35.18
56518;BME280;42419;48.760;2.322;2023-05-01T00:22:54;100962.50;;;23.42;35.51
56518;BME280;42419;48.760;2.322;2023-05-01T00:25:19;100984.41;;;23.51;35.55
56518;BME280;42419;48.760;2.322;2023-05-01T00:27:44;100978.16;;;23.51;35.08
56518;BME280;42419;48.760;2.322;2023-05-01T00:30:10;100979.88;;;23.52;35.08
56518;BME280;42419;48.760;2.322;2023-05-01T00:32:35;100977.13;;;23.53;35.56
56518;BME280;42419;48.760;2.322;2023-05-01T00:35:01;100962.28;;;23.46;35.26
56518;BME280;42419;48.760;2.322;2023-05-01T00:37:26;100967.25;;;23.54;34.96
56518;BME280;42419;48.760;2.322;2023-05-01T00:39:51;100974.28;;;23.56;35.34
56518;BME280;42419;48.760;2.322;2023-05-01T00:42:17;100972.47;;;23.57;35.42
56518;BME280;42419;48.760;2.322;2023-05-01T00:44:42;100963.53;;;23.56;35.05
56518;BME280;42419;48.760;2.322;2023-05-01T00:47:07;100960.69;;;23.59;35.16
56518;BME280;42419;48.760;2.322;2023-05-01T00:49:33;100967.81;;;23.60;35.16
56518;BME280;42419;48.760;2.322;2023-05-01T00:51:58;100958.78;;;23.61;35.30
56518;BME280;42419;48.760;2.322;2023-05-01T00:54:24;100947.41;;;23.56;34.76
56518;BME280;42419;48.760;2.322;2023-05-01T00:56:51;100950.00;;;23.58;34.99
56518;BME280;42419;48.760;2.322;2023-05-01T00:59:17;100923.66;;;23.47;34.93
56518;BME280;42419;48.760;2.322;2023-05-01T01:01:42;100955.00;;;23.65;34.98
56518;BME280;42419;48.760;2.322;2023-05-01T01:04:08;100946.94;;;23.65;34.71
56518;BME280;42419;48.760;2.322;2023-05-01T01:06:41;100943.28;;;23.66;34.64
56518;BME280;42419;48.760;2.322;2023-05-01T01:09:32;100941.41;;;23.68;34.68
56518;BME280;42419;48.760;2.322;2023-05-01T01:15:01;100930.66;;;23.68;34.52
56518;BME280;42419;48.760;2.322;2023-05-01T01:17:43;100934.22;;;23.69;34.42
56518;BME280;42419;48.760;2.322;2023-05-01T01:20:31;100928.75;;;23.70;34.44
56518;BME280;42419;48.760;2.322;2023-05-01T01:26:06;100912.84;;;23.66;34.52
56518;BME280;42419;48.760;2.322;2023-05-01T01:34:27;100918.69;;;23.74;34.16
56518;BME280;42419;48.760;2.322;2023-05-01T01:37:10;100924.00;;;23.76;34.16
56518;BME280;42419;48.760;2.322;2023-05-01T01:39:52;100914.19;;;23.74;34.16
56518;BME280;42419;48.760;2.322;2023-05-01T01:42:21;100917.75;;;23.75;34.79
56518;BME280;42419;48.760;2.322;2023-05-01T01:44:54;100906.94;;;23.77;34.07
56518;BME280;42419;48.760;2.322;2023-05-01T01:47:21;100916.75;;;23.78;34.39
56518;BME280;42419;48.760;2.322;2023-05-01T01:49:51;100914.94;;;23.78;34.71
56518;BME280;42419;48.760;2.322;2023-05-01T01:52:19;100913.00;;;23.80;34.42
56518;BME280;42419;48.760;2.322;2023-05-01T01:55:04;100908.44;;;23.82;34.29
56518;BME280;42419;48.760;2.322;2023-05-01T01:57:30;100902.44;;;23.77;34.55
56518;BME280;42419;48.760;2.322;2023-05-01T01:59:56;100915.53;;;23.83;33.97
56518;BME280;42419;48.760;2.322;2023-05-01T02:02:22;100922.63;;;23.86;34.45
56518;BME280;42419;48.760;2.322;2023-05-01T02:04:50;100919.94;;;23.86;34.41
56518;BME280;42419;48.760;2.322;2023-05-01T02:07:17;100925.13;;;23.89;34.31
56518;BME280;42419;48.760;2.322;2023-05-01T02:09:43;100919.69;;;23.90;33.85
56518;BME280;42419;48.760;2.322;2023-05-01T02:12:11;100924.19;;;23.90;33.99
56518;BME280;42419;48.760;2.322;2023-05-01T02:14:37;100921.50;;;23.90;33.58
56518;BME280;42419;48.760;2.322;2023-05-01T02:17:04;100928.69;;;23.89;34.21
56518;BME280;42419;48.760;2.322;2023-05-01T02:19:30;100924.13;;;23.91;34.12
56518;BME280;42419;48.760;2.322;2023-05-01T02:21:58;100927.69;;;23.92;33.92
56518;BME280;42419;48.760;2.322;2023-05-01T02:24:26;100913.50;;;23.88;33.94
56518;BME280;42419;48.760;2.322;2023-05-01T02:27:03;100914.13;;;23.93;33.46
56518;BME280;42419;48.760;2.322;2023-05-01T02:29:31;100922.13;;;23.95;33.89
56518;BME280;42419;48.760;2.322;2023-05-01T02:31:58;100922.13;;;23.95;34.03
56518;BME280;42419;48.760;2.322;2023-05-01T02:34:24;100920.31;;;23.95;33.79
56518;BME280;42419;48.760;2.322;2023-05-01T02:36:49;100922.84;;;23.98;34.18
56518;BME280;42419;48.760;2.322;2023-05-01T02:39:15;100914.75;;;23.98;33.89
56518;BME280;42419;48.760;2.322;2023-05-01T02:41:40;100901.97;;;23.86;34.02
56518;BME280;42419;48.760;2.322;2023-05-01T02:44:08;100923.72;;;23.99;33.76
56518;BME280;42419;48.760;2.322;2023-05-01T02:46:36;100926.31;;;24.00;33.76
56518;BME280;42419;48.760;2.322;2023-05-01T02:49:03;100912.16;;;23.97;33.96
56518;BME280;42419;48.760;2.322;2023-05-01T02:51:30;100928.03;;;24.01;33.92
56518;BME280;42419;48.760;2.322;2023-05-01T02:53:58;100921.78;;;24.01;33.71
56518;BME280;42419;48.760;2.322;2023-05-01T02:56:27;100919.09;;;24.01;33.60
56518;BME280;42419;48.760;2.322;2023-05-01T02:58:54;100928.03;;;24.01;33.60
56518;BME280;42419;48.760;2.322;2023-05-01T03:01:19;100927.09;;;24.02;33.91
56518;BME280;42419;48.760;2.322;2023-05-01T03:03:45;100913.81;;;23.99;33.68
56518;BME280;42419;48.760;2.322;2023-05-01T03:06:10;100920.69;;;24.05;33.61
56518;BME280;42419;48.760;2.322;2023-05-01T03:08:35;100921.53;;;24.05;33.58
56518;BME280;42419;48.760;2.322;2023-05-01T03:11:04;100918.78;;;24.07;33.23
56518;BME280;42419;48.760;2.322;2023-05-01T03:13:30;100923.28;;;24.06;33.58
56518;BME280;42419;48.760;2.322;2023-05-01T03:15:55;100915.22;;;24.06;33.64
56518;BME280;42419;48.760;2.322;2023-05-01T03:18:21;100914.34;;;24.06;33.49
56518;BME280;42419;48.760;2.322;2023-05-01T03:20:50;100910.72;;;24.07;33.14
56518;BME280;42419;48.760;2.322;2023-05-01T03:23:16;100914.28;;;24.07;33.68
56518;BME280;42419;48.760;2.322;2023-05-01T03:25:41;100893.50;;;23.94;33.91
56518;BME280;42419;48.760;2.322;2023-05-01T03:28:07;100913.47;;;24.05;33.79
56518;BME280;42419;48.760;2.322;2023-05-01T03:30:32;100914.28;;;24.07;33.76
56518;BME280;42419;48.760;2.322;2023-05-01T03:32:58;100917.03;;;24.06;33.68
56518;BME280;42419;48.760;2.322;2023-05-01T03:35:24;100921.47;;;24.07;33.70
56518;BME280;42419;48.760;2.322;2023-05-01T03:37:49;100867.53;;;23.76;33.55
56518;BME280;42419;48.760;2.322;2023-05-01T03:40:14;100920.59;;;24.06;33.39
56518;BME280;42419;48.760;2.322;2023-05-01T03:42:40;100922.34;;;24.07;33.31
56518;BME280;42419;48.760;2.322;2023-05-01T03:45:06;100919.59;;;24.09;33.15
56518;BME280;42419;48.760;2.322;2023-05-01T03:47:31;100901.38;;;23.97;33.79
56518;BME280;42419;48.760;2.322;2023-05-01T03:49:56;100926.84;;;24.07;33.29
56518;BME280;42419;48.760;2.322;2023-05-01T03:52:22;100925.97;;;24.06;33.81
56518;BME280;42419;48.760;2.322;2023-05-01T03:54:47;100920.59;;;24.06;33.35
56518;BME280;42419;48.760;2.322;2023-05-01T03:57:14;100871.16;;;23.74;33.69
56518;BME280;42419;48.760;2.322;2023-05-01T03:59:39;100924.16;;;24.07;33.41
56518;BME280;42419;48.760;2.322;2023-05-01T04:02:04;100924.09;;;24.08;33.67
56518;BME280;42419;48.760;2.322;2023-05-01T04:04:30;100935.63;;;24.10;33.54
56518;BME280;42419;48.760;2.322;2023-05-01T04:06:55;100927.56;;;24.10;33.09
56518;BME280;42419;48.760;2.322;2023-05-01T04:09:21;100916.09;;;24.07;33.25
56518;BME280;42419;48.760;2.322;2023-05-01T04:11:46;100915.06;;;24.09;33.27
56518;BME280;42419;48.760;2.322;2023-05-01T04:14:11;100915.91;;;24.10;33.42
56518;BME280;42419;48.760;2.322;2023-05-01T04:16:37;100927.31;;;24.15;33.19
56518;BME280;42419;48.760;2.322;2023-05-01T04:19:02;100922.72;;;24.17;33.26
56518;BME280;42419;48.760;2.322;2023-05-01T04:21:27;100925.41;;;24.17;33.66
56518;BME280;42419;48.760;2.322;2023-05-01T04:23:52;100926.28;;;24.17;33.02
56518;BME280;42419;48.760;2.322;2023-05-01T04:26:18;100924.47;;;24.18;33.25
56518;BME280;42419;48.760;2.322;2023-05-01T04:28:43;100932.53;;;24.18;33.64
56518;BME280;42419;48.760;2.322;2023-05-01T04:31:09;100935.13;;;24.20;33.35
56518;BME280;42419;48.760;2.322;2023-05-01T04:33:34;100940.50;;;24.20;33.28
56518;BME280;42419;48.760;2.322;2023-05-01T04:35:59;100938.69;;;24.20;33.06
56518;BME280;42419;48.760;2.322;2023-05-01T04:38:28;100937.75;;;24.21;33.14
56518;BME280;42419;48.760;2.322;2023-05-01T04:40:54;100920.34;;;24.11;33.14
56518;BME280;42419;48.760;2.322;2023-05-01T04:43:20;100942.19;;;24.22;33.37
56518;BME280;42419;48.760;2.322;2023-05-01T04:45:46;100937.75;;;24.21;32.97
56518;BME280;42419;48.760;2.322;2023-05-01T04:48:11;100939.50;;;24.22;33.26
56518;BME280;42419;48.760;2.322;2023-05-01T04:50:37;100942.09;;;24.24;33.32
56518;BME280;42419;48.760;2.322;2023-05-01T04:53:02;100942.00;;;24.25;33.17
56518;BME280;42419;48.760;2.322;2023-05-01T04:55:27;100940.25;;;24.24;33.33
56518;BME280;42419;48.760;2.322;2023-05-01T04:57:52;100942.09;;;24.24;33.66
56518;BME280;42419;48.760;2.322;2023-05-01T05:00:18;100948.34;;;24.24;33.61
56518;BME280;42419;48.760;2.322;2023-05-01T05:02:44;100951.03;;;24.24;33.44
56518;BME280;42419;48.760;2.322;2023-05-01T05:05:10;100940.25;;;24.24;32.96
56518;BME280;42419;48.760;2.322;2023-05-01T05:07:35;100950.09;;;24.25;33.13
56518;BME280;42419;48.760;2.322;2023-05-01T05:10:01;100949.16;;;24.26;32.86
56518;BME280;42419;48.760;2.322;2023-05-01T05:12:26;100954.41;;;24.28;33.12
56518;BME280;42419;48.760;2.322;2023-05-01T05:14:51;100950.00;;;24.27;33.37
56518;BME280;42419;48.760;2.322;2023-05-01T05:17:17;100957.09;;;24.28;33.10
56518;BME280;42419;48.760;2.322;2023-05-01T05:19:42;100958.84;;;24.29;32.95
56518;BME280;42419;48.760;2.322;2023-05-01T05:22:07;100956.97;;;24.31;33.37
56518;BME280;42419;48.760;2.322;2023-05-01T05:24:36;100957.84;;;24.31;32.89
56518;BME280;42419;48.760;2.322;2023-05-01T05:27:01;100964.16;;;24.30;33.46
56518;BME280;42419;48.760;2.322;2023-05-01T05:29:28;100958.78;;;24.30;32.96
56518;BME280;42419;48.760;2.322;2023-05-01T05:31:53;100968.44;;;24.34;32.90
56518;BME280;42419;48.760;2.322;2023-05-01T05:34:18;100967.56;;;24.34;32.91
56518;BME280;42419;48.760;2.322;2023-05-01T05:36:44;100970.31;;;24.32;33.11
56518;BME280;42419;48.760;2.322;2023-05-01T05:39:09;100965.81;;;24.33;33.27
56518;BME280;42419;48.760;2.322;2023-05-01T05:41:34;100962.19;;;24.34;32.96
56518;BME280;42419;48.760;2.322;2023-05-01T05:43:59;100967.56;;;24.34;33.11
56518;BME280;42419;48.760;2.322;2023-05-01T05:46:25;100947.41;;;24.25;33.08
56518;BME280;42419;48.760;2.322;2023-05-01T05:48:50;100966.63;;;24.35;32.67
56518;BME280;42419;48.760;2.322;2023-05-01T05:51:16;100965.75;;;24.34;33.06
56518;BME280;42419;48.760;2.322;2023-05-01T05:53:41;100958.72;;;24.32;33.27
56518;BME280;42419;48.760;2.322;2023-05-01T05:56:06;100967.38;;;24.37;32.86
56518;BME280;42419;48.760;2.322;2023-05-01T05:58:32;100952.47;;;24.31;32.79
56518;BME280;42419;48.760;2.322;2023-05-01T06:00:57;100967.06;;;24.43;32.79
56518;BME280;42419;48.760;2.322;2023-05-01T06:03:22;100953.84;;;24.38;32.52
56518;BME280;42419;48.760;2.322;2023-05-01T06:05:48;100945.09;;;24.35;32.76
56518;BME280;42419;48.760;2.322;2023-05-01T06:08:13;100959.78;;;24.45;32.89
56518;BME280;42419;48.760;2.322;2023-05-01T06:10:42;100964.13;;;24.47;32.72
56518;BME280;42419;48.760;2.322;2023-05-01T06:13:08;100965.91;;;24.48;32.74
56518;BME280;42419;48.760;2.322;2023-05-01T06:15:35;100964.97;;;24.49;32.96
56518;BME280;42419;48.760;2.322;2023-05-01T06:18:01;100972.06;;;24.50;32.62
56518;BME280;42419;48.760;2.322;2023-05-01T06:20:26;100970.22;;;24.51;32.77
56518;BME280;42419;48.760;2.322;2023-05-01T06:22:52;100977.44;;;24.50;32.85
56518;BME280;42419;48.760;2.322;2023-05-01T06:25:17;100974.75;;;24.50;32.91
56518;BME280;42419;48.760;2.322;2023-05-01T06:27:43;100973.88;;;24.50;32.70
56518;BME280;42419;48.760;2.322;2023-05-01T06:30:09;100980.13;;;24.50;33.22
56518;BME280;42419;48.760;2.322;2023-05-01T06:32:34;100979.19;;;24.51;33.10
56518;BME280;42419;48.760;2.322;2023-05-01T06:35:00;100971.41;;;24.45;33.29
56518;BME280;42419;48.760;2.322;2023-05-01T06:37:25;100988.13;;;24.52;33.14
56518;BME280;42419;48.760;2.322;2023-05-01T06:39:50;100987.19;;;24.53;33.93
56518;BME280;42419;48.760;2.322;2023-05-01T06:42:16;100988.84;;;24.55;33.99
56518;BME280;42419;48.760;2.322;2023-05-01T06:44:42;100987.88;;;24.56;33.62
56518;BME280;42419;48.760;2.322;2023-05-01T06:47:07;100979.72;;;24.58;33.67
56518;BME280;42419;48.760;2.322;2023-05-01T06:49:32;100979.63;;;24.59;33.69
56518;BME280;42419;48.760;2.322;2023-05-01T06:51:58;100985.88;;;24.60;34.24
56518;BME280;42419;48.760;2.322;2023-05-01T06:54:24;100971.97;;;24.52;34.34
56518;BME280;42419;48.760;2.322;2023-05-01T06:56:51;100980.50;;;24.60;34.57
56518;BME280;42419;48.760;2.322;2023-05-01T06:59:16;100984.13;;;24.59;34.71
56518;BME280;42419;48.760;2.322;2023-05-01T07:01:41;100985.88;;;24.60;34.53
56518;BME280;42419;48.760;2.322;2023-05-01T07:04:07;100986.00;;;24.58;34.64
56518;BME280;42419;48.760;2.322;2023-05-01T07:06:32;100986.00;;;24.58;34.76
56518;BME280;42419;48.760;2.322;2023-05-01T07:08:57;100963.22;;;24.48;34.54
56518;BME280;42419;48.760;2.322;2023-05-01T07:11:23;100973.97;;;24.48;34.85
56518;BME280;42419;48.760;2.322;2023-05-01T07:13:48;100997.00;;;24.54;34.74
56518;BME280;42419;48.760;2.322;2023-05-01T07:16:13;101000.66;;;24.53;35.06
56518;BME280;42419;48.760;2.322;2023-05-01T07:18:39;100998.03;;;24.51;34.81
56518;BME280;42419;48.760;2.322;2023-05-01T07:21:04;101007.94;;;24.51;34.66
56518;BME280;42419;48.760;2.322;2023-05-01T07:23:29;100999.94;;;24.49;34.87
56518;BME280;42419;48.760;2.322;2023-05-01T07:25:55;101008.97;;;24.48;35.16
56518;BME280;42419;48.760;2.322;2023-05-01T07:28:21;101011.69;;;24.47;35.20
56518;BME280;42419;48.760;2.322;2023-05-01T07:30:47;101001.78;;;24.49;35.14
56518;BME280;42419;48.760;2.322;2023-05-01T07:33:12;100980.06;;;24.35;35.22
56518;BME280;42419;48.760;2.322;2023-05-01T07:35:37;101002.75;;;24.46;35.25
56518;BME280;42419;48.760;2.322;2023-05-01T07:38:03;100991.25;;;24.27;33.24
56518;BME280;42419;48.760;2.322;2023-05-01T07:40:28;101005.31;;;24.32;32.27
56518;BME280;42419;48.760;2.322;2023-05-01T07:42:54;101011.97;;;24.25;32.49
56518;BME280;42419;48.760;2.322;2023-05-01T07:45:19;101015.06;;;24.17;32.43
56518;BME280;42419;48.760;2.322;2023-05-01T07:47:44;101020.06;;;24.08;32.91
56518;BME280;42419;48.760;2.322;2023-05-01T07:50:11;101016.91;;;24.00;33.12
56518;BME280;42419;48.760;2.322;2023-05-01T07:52:36;101019.25;;;23.89;33.06
56518;BME280;42419;48.760;2.322;2023-05-01T07:55:02;101026.00;;;23.79;33.17
56518;BME280;42419;48.760;2.322;2023-05-01T07:57:28;101007.41;;;23.57;32.83
56518;BME280;42419;48.760;2.322;2023-05-01T07:59:55;100954.59;;;23.20;33.28
56518;BME280;42419;48.760;2.322;2023-05-01T08:02:21;101024.34;;;23.59;33.10
56518;BME280;42419;48.760;2.322;2023-05-01T08:04:46;101025.56;;;23.52;34.02
56518;BME280;42419;48.760;2.322;2023-05-01T08:07:12;101030.88;;;23.53;33.29
56518;BME280;42419;48.760;2.322;2023-05-01T08:09:38;101026.78;;;23.46;33.28
56518;BME280;42419;48.760;2.322;2023-05-01T08:12:03;101024.16;;;23.45;33.47
56518;BME280;42419;48.760;2.322;2023-05-01T08:14:28;101033.09;;;23.45;33.77
56518;BME280;42419;48.760;2.322;2023-05-01T08:16:54;101034.34;;;23.38;34.20
56518;BME280;42419;48.760;2.322;2023-05-01T08:19:19;101016.47;;;23.37;34.38
56518;BME280;42419;48.760;2.322;2023-05-01T08:21:45;101029.94;;;23.54;34.27
56518;BME280;42419;48.760;2.322;2023-05-01T08:24:11;101032.34;;;23.60;34.26
56518;BME280;42419;48.760;2.322;2023-05-01T08:26:36;101031.53;;;23.58;34.94
56518;BME280;42419;48.760;2.322;2023-05-01T08:29:02;101030.19;;;23.67;34.53
56518;BME280;42419;48.760;2.322;2023-05-01T08:31:27;101028.88;;;23.76;34.66
56518;BME280;42419;48.760;2.322;2023-05-01T08:33:52;101034.72;;;23.84;34.68
56518;BME280;42419;48.760;2.322;2023-05-01T08:36:18;101009.09;;;23.77;34.83
56518;BME280;42419;48.760;2.322;2023-05-01T08:38:43;101028.03;;;23.92;34.54
56518;BME280;42419;48.760;2.322;2023-05-01T08:41:15;101028.78;;;23.96;34.11
56518;BME280;42419;48.760;2.322;2023-05-01T08:43:40;101011.28;;;23.87;34.08
56518;BME280;42419;48.760;2.322;2023-05-01T08:46:08;101026.84;;;23.98;34.23
56518;BME280;42419;48.760;2.322;2023-05-01T08:48:35;101030.34;;;24.00;34.20
56518;BME280;42419;48.760;2.322;2023-05-01T08:51:01;101030.19;;;24.03;34.59
56518;BME280;42419;48.760;2.322;2023-05-01T08:53:30;101038.31;;;24.01;34.59
56518;BME280;42419;48.760;2.322;2023-05-01T08:55:56;101040.31;;;23.98;34.48
56518;BME280;42419;48.760;2.322;2023-05-01T08:58:24;101046.50;;;24.00;34.28
56518;BME280;42419;48.760;2.322;2023-05-01T09:00:50;101048.31;;;23.99;34.54
56518;BME280;42419;48.760;2.322;2023-05-01T09:03:16;101038.09;;;23.89;34.18
56518;BME280;42419;48.760;2.322;2023-05-01T09:05:42;101052.00;;;23.97;34.59
56518;BME280;42419;48.760;2.322;2023-05-01T09:08:07;101053.81;;;23.96;34.87
56518;BME280;42419;48.760;2.322;2023-05-01T09:10:32;101053.91;;;23.95;34.64
56518;BME280;42419;48.760;2.322;2023-05-01T09:13:02;101056.69;;;23.93;34.71
56518;BME280;42419;48.760;2.322;2023-05-01T09:15:31;101002.78;;;23.60;34.52
56518;BME280;42419;48.760;2.322;2023-05-01T09:17:58;101061.19;;;23.93;34.54
56518;BME280;42419;48.760;2.322;2023-05-01T09:20:24;101052.34;;;23.91;34.62
56518;BME280;42419;48.760;2.322;2023-05-01T09:22:49;101045.00;;;23.76;34.58
56518;BME280;42419;48.760;2.322;2023-05-01T09:25:15;101069.59;;;23.87;35.01
56518;BME280;42419;48.760;2.322;2023-05-01T09:27:40;101072.19;;;23.88;34.79
56518;BME280;42419;48.760;2.322;2023-05-01T09:30:06;101069.41;;;23.90;34.43
56518;BME280;42419;48.760;2.322;2023-05-01T09:33:03;101059.75;;;23.86;34.84
56518;BME280;42419;48.760;2.322;2023-05-01T09:35:28;101069.47;;;23.88;34.56
56518;BME280;42419;48.760;2.322;2023-05-01T09:37:53;101069.66;;;23.85;34.27
56518;BME280;42419;48.760;2.322;2023-05-01T09:40:25;101073.16;;;23.87;34.45
56518;BME280;42419;48.760;2.322;2023-05-01T09:42:52;101060.84;;;23.82;34.29
56518;BME280;42419;48.760;2.322;2023-05-01T09:45:20;101074.81;;;23.90;34.55
56518;BME280;42419;48.760;2.322;2023-05-01T09:47:47;101058.22;;;23.80;34.58
56518;BME280;42419;48.760;2.322;2023-05-01T09:50:32;101054.88;;;23.75;34.33
56518;BME280;42419;48.760;2.322;2023-05-01T09:53:02;101083.81;;;23.89;34.17
56518;BME280;42419;48.760;2.322;2023-05-01T09:55:29;101074.81;;;23.90;34.75
56518;BME280;42419;48.760;2.322;2023-05-01T09:57:55;101071.88;;;23.94;34.49
56518;BME280;42419;48.760;2.322;2023-05-01T10:00:22;101077.03;;;23.99;35.06
56518;BME280;42419;48.760;2.322;2023-05-01T10:02:49;101069.84;;;23.99;35.37
56518;BME280;42419;48.760;2.322;2023-05-01T10:05:14;101078.78;;;24.00;35.44
56518;BME280;42419;48.760;2.322;2023-05-01T10:07:58;101080.50;;;24.01;35.50
56518;BME280;42419;48.760;2.322;2023-05-01T10:10:23;101060.41;;;23.91;35.46
56518;BME280;42419;48.760;2.322;2023-05-01T10:12:49;101091.25;;;24.01;35.62
56518;BME280;42419;48.760;2.322;2023-05-01T10:15:15;101078.69;;;24.01;35.47
56518;BME280;42419;48.760;2.322;2023-05-01T10:17:42;101080.41;;;24.02;35.87
56518;BME280;42419;48.760;2.322;2023-05-01T10:20:09;101078.59;;;24.03;35.94
56518;BME280;42419;48.760;2.322;2023-05-01T10:22:35;101074.97;;;24.04;35.81
56518;BME280;42419;48.760;2.322;2023-05-01T10:25:01;101079.41;;;24.05;35.83
56518;BME280;42419;48.760;2.322;2023-05-01T10:27:28;101069.59;;;24.04;35.96
56518;BME280;42419;48.760;2.322;2023-05-01T10:29:54;101077.56;;;24.05;35.58
56518;BME280;42419;48.760;2.322;2023-05-01T10:32:20;101071.34;;;24.05;35.26
56518;BME280;42419;48.760;2.322;2023-05-01T10:34:48;101071.34;;;24.05;35.44
56518;BME280;42419;48.760;2.322;2023-05-01T10:37:20;101061.81;;;23.98;35.57
56518;BME280;42419;48.760;2.322;2023-05-01T10:39:47;101072.34;;;24.02;35.79
56518;BME280;42419;48.760;2.322;2023-05-01T10:42:12;101075.03;;;24.02;35.92
56518;BME280;42419;48.760;2.322;2023-05-01T10:44:40;101056.50;;;23.96;35.87
56518;BME280;42419;48.760;2.322;2023-05-01T10:52:29;101070.59;;;24.01;35.60
56518;BME280;42419;48.760;2.322;2023-05-01T10:57:58;101059.78;;;24.03;35.99
56518;BME280;42419;48.760;2.322;2023-05-01T11:00:24;101058.91;;;24.02;35.99
56518;BME280;42419;48.760;2.322;2023-05-01T11:02:49;101056.16;;;24.04;36.02
56518;BME280;42419;48.760;2.322;2023-05-01T11:05:14;101056.16;;;24.04;36.34
56518;BME280;42419;48.760;2.322;2023-05-01T11:07:40;101055.22;;;24.05;36.31
56518;BME280;42419;48.760;2.322;2023-05-01T11:10:24;100995.03;;;23.71;36.77
56518;BME280;42419;48.760;2.322;2023-05-01T11:12:51;101061.53;;;24.04;36.49
56518;BME280;42419;48.760;2.322;2023-05-01T11:15:30;101050.84;;;24.02;37.27
56518;BME280;42419;48.760;2.322;2023-05-01T11:17:58;101031.59;;;23.93;36.32
56518;BME280;42419;48.760;2.322;2023-05-01T11:22:50;101043.00;;;23.98;36.91
56518;BME280;42419;48.760;2.322;2023-05-01T11:25:18;101043.94;;;23.97;37.24
56518;BME280;42419;48.760;2.322;2023-05-01T11:27:48;101043.94;;;23.97;37.84
56518;BME280;42419;48.760;2.322;2023-05-01T11:30:14;101027.31;;;23.89;37.26
56518;BME280;42419;48.760;2.322;2023-05-01T11:32:42;101040.47;;;23.95;38.05
56518;BME280;42419;48.760;2.322;2023-05-01T11:35:16;101047.75;;;23.93;38.74
56518;BME280;42419;48.760;2.322;2023-05-01T11:37:42;101022.31;;;23.81;37.96
56518;BME280;42419;48.760;2.322;2023-05-01T11:40:25;101039.16;;;23.85;37.14
56518;BME280;42419;48.760;2.322;2023-05-01T11:43:07;101025.63;;;23.69;36.45
56518;BME280;42419;48.760;2.322;2023-05-01T11:45:34;101030.38;;;23.64;36.91
56518;BME280;42419;48.760;2.322;2023-05-01T11:48:00;101022.53;;;23.59;37.27
56518;BME280;42419;48.760;2.322;2023-05-01T11:50:36;101019.97;;;23.56;36.93
56518;BME280;42419;48.760;2.322;2023-05-01T11:53:12;101010.19;;;23.55;36.97
56518;BME280;42419;48.760;2.322;2023-05-01T11:55:39;101018.31;;;23.54;36.58
56518;BME280;42419;48.760;2.322;2023-05-01T11:58:05;101021.06;;;23.52;36.47
56518;BME280;42419;48.760;2.322;2023-05-01T12:00:35;101017.91;;;23.44;36.33
56518;BME280;42419;48.760;2.322;2023-05-01T12:03:12;101023.72;;;23.35;35.12
56518;BME280;42419;48.760;2.322;2023-05-01T12:05:39;101012.06;;;23.16;36.47
56518;BME280;42419;48.760;2.322;2023-05-01T12:08:15;101029.16;;;23.15;38.41
56518;BME280;42419;48.760;2.322;2023-05-01T12:10:43;101029.59;;;23.06;37.56
56518;BME280;42419;48.760;2.322;2023-05-01T12:13:10;101033.72;;;22.94;38.52
56518;BME280;42419;48.760;2.322;2023-05-01T12:15:38;101020.66;;;22.87;38.11
56518;BME280;42419;48.760;2.322;2023-05-01T12:18:04;101037.03;;;22.80;38.80
56518;BME280;42419;48.760;2.322;2023-05-01T12:22:59;101042.09;;;22.68;39.12
56518;BME280;42419;48.760;2.322;2023-05-01T12:25:34;100998.72;;;22.38;39.54
56518;BME280;42419;48.760;2.322;2023-05-01T12:28:07;101029.44;;;22.51;38.84
56518;BME280;42419;48.760;2.322;2023-05-01T12:30:34;101042.78;;;22.53;39.89
56518;BME280;42419;48.760;2.322;2023-05-01T12:33:07;101040.09;;;22.53;39.51
56518;BME280;42419;48.760;2.322;2023-05-01T12:35:34;101046.56;;;22.49;40.38
56518;BME280;42419;48.760;2.322;2023-05-01T12:38:09;101055.31;;;22.52;41.56
56518;BME280;42419;48.760;2.322;2023-05-01T12:40:35;101056.16;;;22.54;41.02
56518;BME280;42419;48.760;2.322;2023-05-01T12:43:01;101063.22;;;22.57;40.75
56518;BME280;42419;48.760;2.322;2023-05-01T12:45:27;101073.25;;;22.52;40.19
56518;BME280;42419;48.760;2.322;2023-05-01T12:47:52;101093.59;;;22.57;39.30
56518;BME280;42419;48.760;2.322;2023-05-01T12:50:18;101090.22;;;22.52;39.11
56518;BME280;42419;48.760;2.322;2023-05-01T12:52:43;101088.59;;;22.48;38.96
56518;BME280;42419;48.760;2.322;2023-05-01T12:55:09;101081.84;;;22.39;39.32
56518;BME280;42419;48.760;2.322;2023-05-01T12:57:50;101079.38;;;22.55;40.20
56518;BME280;42419;48.760;2.322;2023-05-01T13:00:15;101083.25;;;22.68;39.79
56518;BME280;42419;48.760;2.322;2023-05-01T13:02:41;101088.94;;;22.81;40.33
56518;BME280;42419;48.760;2.322;2023-05-01T13:05:09;101092.69;;;22.97;40.38
56518;BME280;42419;48.760;2.322;2023-05-01T13:07:35;101087.59;;;23.10;39.96
56518;BME280;42419;48.760;2.322;2023-05-01T13:10:02;101065.19;;;23.11;40.05
56518;BME280;42419;48.760;2.322;2023-05-01T13:12:29;101082.78;;;23.37;39.69
56518;BME280;42419;48.760;2.322;2023-05-01T13:14:55;101084.31;;;23.42;39.70